Airfield :







YOU CAN JOIN US ON...

 
LOGIN :

Register | Disclaimer

   EN    FR    IT 

 









Legend :    VFR   Marginal VFR   IFR   Intensive IFR   Very Intensive IFR
Visi :
Ceiling :
>= 8 km
>= 3000ft
5 to 8 km
1000 to 3000 ft
1500m to 5 km
500 to 1000 ft
800 to 1500m
200 to 500 ft
< 800m
< 200 ft
Symbols :   Thunderstorms  Fog  Heavy snow  Heavy precipitations  Wind > 20 kt







- Airport Elevation : 244 ft
- IATA code : YQB


CYQB - Quebec - Jean Lesage Int.

CURRENT METAR :
  • 210700Z 08011G17KT 15SM FEW040 SCT140 BKN180 OVC260 22/19 A2962 RMK SC1AC3AC3CI2 SC TR SLP032 DENSITY ALT 1500FT

EXPIRED METARs :
  • 210600Z 25006KT 15SM SCT180 BKN260 23/21 A2961 RMK AC3CI4 SLP028 DENSITY ALT 1600FT
  • 210500Z 24006KT 15SM FEW170 BKN260 24/22 A2962 RMK AC2CI3 SLP031 DENSITY ALT 1700FT

TAF TAF CYQB
Valid from the 21 at 06:00 until the 22 at 06:00 UTC


210538Z 2106/2206 24006KT P6SM FEW170 BKN240
FM210700 25005KT P6SM FEW015 BKN080 OVC120
TEMPO 2107/2109 6SM -SHRA BR
FM210900 23008KT P6SM -SHRA FEW005 SCT012 OVC040
TEMPO 2109/2112 5SM -SHRA BR VCTS SCT005 BKN012 BKN020CB
FM211400 25008KT P6SM SCT008 OVC030
TEMPO 2114/2118 6SM -SHRA BR BKN008 OVC020
FM211800 26010G20KT P6SM -RA BKN020 OVC030
FM212100 26010G20KT P6SM -SHRA BKN025
FM220000 23006KT P6SM SCT030
FM220300 31006KT P6SM SCT030 BKN080 RMK NXT FCST BY 211200Z
ATIS : ENG : +1 418-871-6893 FRA : +1 418-871-6895
CZUL FIR / North America



MET'MAP, your aeronautical weather chart ! - Copyright ORBIFLY December 2007 - Disclaimer

ORBIFLY MET'MAP TEAM :

Programming & Development : Alexandra Zaïnal
Concept & Development : Baudouin d'Aumeries
Co-Development & Prog : Marc-Olivier Méhu
Technical & hardware support : Manuel Goepfert

Contact : metmap@orbifly.com




SOURCES & CREDITS :

   NOAA